Time;durP1;ratioP1;P1;durP2;ratioP2;P2;SDS_P1;SDS_P2;PMS_P1;PMS_P2;Temp;Humidity;BMP_temperature;BMP_pressure;BME280_temperature;BME280_humidity;BME280_pressure;Samples;Min_cycle;Max_cycle;Signal;HPM_P1;HPM_P2
2023/04/06 00:02:07;;;;;;;190.07;134.75;;;25.50;99.90;;;;;;5073734;28;20024;-72
2023/04/06 00:04:34;;;;;;;12.20;8.05;;;25.40;99.90;;;;;;5073607;28;20017;-73
2023/04/06 00:07:00;;;;;;;10.82;5.13;;;25.60;99.90;;;;;;5073454;28;20025;-72
2023/04/06 00:09:27;;;;;;;7.82;4.90;;;25.40;99.90;;;;;;5073505;28;20096;-73
2023/04/06 00:11:53;;;;;;;9.45;5.43;;;25.70;99.90;;;;;;5073550;28;20070;-73
2023/04/06 00:14:20;;;;;;;10.30;5.22;;;25.80;99.90;;;;;;5073460;28;20024;-72
2023/04/06 00:16:46;;;;;;;10.68;5.40;;;25.50;99.90;;;;;;5073272;28;20082;-73
2023/04/06 00:19:13;;;;;;;6.47;5.00;;;25.70;99.90;;;;;;5073519;28;20479;-74
2023/04/06 00:21:40;;;;;;;9.65;5.10;;;25.80;99.90;;;;;;5073228;28;20396;-73
2023/04/06 00:24:06;;;;;;;8.35;5.35;;;25.90;99.90;;;;;;5072971;28;20070;-73
2023/04/06 00:26:33;;;;;;;8.63;5.85;;;25.60;99.90;;;;;;5073360;28;20055;-73
2023/04/06 00:29:00;;;;;;;7.28;4.88;;;25.80;99.90;;;;;;5073310;28;20516;-73
2023/04/06 00:31:26;;;;;;;11.57;5.10;;;25.70;99.90;;;;;;5073158;28;20077;-73
2023/04/06 00:33:53;;;;;;;9.63;6.07;;;25.70;99.90;;;;;;5073360;28;20027;-74
2023/04/06 00:36:19;;;;;;;8.32;6.45;;;25.60;99.90;;;;;;5073450;28;20074;-72
2023/04/06 00:38:46;;;;;;;8.82;6.80;;;26.00;99.90;;;;;;5073026;28;20027;-73
2023/04/06 00:41:12;;;;;;;16.15;9.27;;;26.00;99.90;;;;;;5073210;28;20027;-73
2023/04/06 00:43:39;;;;;;;15.60;9.65;;;25.90;99.90;;;;;;5067913;28;20086;-73
2023/04/06 00:46:05;;;;;;;11.80;8.77;;;25.80;99.90;;;;;;5052832;28;20021;-70
2023/04/06 00:48:32;;;;;;;21.45;17.13;;;25.70;99.90;;;;;;5061860;28;20021;-68
2023/04/06 00:50:59;;;;;;;10.73;7.88;;;25.70;99.90;;;;;;5052940;28;20498;-68
2023/04/06 00:53:26;;;;;;;15.90;9.07;;;25.60;99.90;;;;;;5053015;28;20037;-69
2023/04/06 00:55:52;;;;;;;18.38;8.30;;;25.80;99.90;;;;;;5053292;28;20021;-69
2023/04/06 00:58:19;;;;;;;10.70;9.55;;;25.80;99.90;;;;;;5058749;28;20021;-68
2023/04/06 01:00:45;;;;;;;13.85;9.23;;;26.10;99.90;;;;;;5069056;28;20028;-69
2023/04/06 01:03:12;;;;;;;18.02;9.40;;;26.10;99.90;;;;;;5073091;28;20024;-69
2023/04/06 01:05:40;;;;;;;14.38;10.13;;;25.90;99.90;;;;;;5072979;28;20025;-70
2023/04/06 01:08:07;;;;;;;15.25;9.95;;;25.90;99.90;;;;;;5073059;28;20383;-69
2023/04/06 01:10:34;;;;;;;14.13;9.57;;;26.20;99.90;;;;;;5072956;28;20012;-69
2023/04/06 01:13:00;;;;;;;14.63;9.43;;;25.90;99.90;;;;;;5072997;28;20028;-69
2023/04/06 01:15:28;;;;;;;14.25;8.93;;;26.00;99.90;;;;;;5074814;28;20027;-68
2023/04/06 01:17:55;;;;;;;16.85;14.18;;;26.40;99.90;;;;;;5077160;28;20054;-71
2023/04/06 01:20:22;;;;;;;18.17;11.23;;;26.30;99.90;;;;;;5077020;28;20047;-72
2023/04/06 01:22:48;;;;;;;13.40;9.63;;;26.30;99.90;;;;;;5076546;28;20066;-71
2023/04/06 01:25:15;;;;;;;13.38;8.85;;;26.20;99.90;;;;;;5076598;28;20090;-70
2023/04/06 01:27:42;;;;;;;12.93;9.40;;;26.40;99.90;;;;;;5076586;28;20108;-73
2023/04/06 01:30:09;;;;;;;12.68;8.63;;;26.10;99.90;;;;;;5075135;28;20463;-72
2023/04/06 01:32:35;;;;;;;11.70;9.05;;;26.20;99.90;;;;;;5076315;28;20028;-73
2023/04/06 01:35:02;;;;;;;11.05;8.93;;;26.30;99.90;;;;;;5076264;28;20052;-72
2023/04/06 01:37:31;;;;;;;15.32;10.40;;;26.40;99.90;;;;;;5076386;28;20100;-72
2023/04/06 01:39:58;;;;;;;16.10;10.20;;;26.80;99.90;;;;;;5076197;28;20115;-72
2023/04/06 01:42:26;;;;;;;19.25;10.63;;;26.80;99.90;;;;;;5076490;28;20027;-73
2023/04/06 01:44:52;;;;;;;19.70;12.32;;;26.50;99.90;;;;;;5076561;28;20017;-70
2023/04/06 01:47:19;;;;;;;13.88;8.65;;;26.50;99.90;;;;;;5076753;28;20016;-72
2023/04/06 01:49:45;;;;;;;13.52;8.13;;;26.70;99.90;;;;;;5075541;28;20422;-72
2023/04/06 01:52:12;;;;;;;33.13;19.95;;;26.80;99.90;;;;;;5076811;28;20035;-72
2023/04/06 01:54:38;;;;;;;10.70;7.78;;;26.60;99.90;;;;;;5076536;28;20028;-72
2023/04/06 01:57:05;;;;;;;17.63;8.95;;;26.60;99.90;;;;;;5076653;28;20479;-73
2023/04/06 01:59:31;;;;;;;15.88;9.65;;;26.60;99.90;;;;;;5076444;28;20425;-73
2023/04/06 02:01:58;;;;;;;11.30;8.27;;;26.80;99.90;;;;;;5076137;28;20025;-73
2023/04/06 02:04:24;;;;;;;21.23;10.57;;;26.90;99.90;;;;;;5076627;28;20070;-72
2023/04/06 02:06:51;;;;;;;10.98;8.90;;;26.90;99.90;;;;;;5076471;28;20028;-73
2023/04/06 02:09:17;;;;;;;12.90;9.70;;;26.80;99.90;;;;;;5076241;28;20016;-72
2023/04/06 02:11:44;;;;;;;17.50;9.02;;;26.90;99.90;;;;;;5076334;28;20044;-72
2023/04/06 02:14:10;;;;;;;50.15;37.83;;;27.10;99.90;;;;;;5076183;28;20028;-73
2023/04/06 02:16:37;;;;;;;19.20;11.65;;;27.20;99.90;;;;;;5070928;28;20028;-73
2023/04/06 02:19:04;;;;;;;10.82;7.38;;;27.20;99.90;;;;;;5061832;28;20065;-75
2023/04/06 02:21:30;;;;;;;15.43;7.97;;;27.10;99.90;;;;;;5075713;28;20024;-72
2023/04/06 02:23:57;;;;;;;11.70;6.55;;;27.30;99.90;;;;;;5055541;28;20078;-73
2023/04/06 02:26:23;;;;;;;6.63;5.03;;;27.30;99.90;;;;;;5055355;28;20425;-72
2023/04/06 02:28:50;;;;;;;10.15;6.63;;;27.20;99.90;;;;;;5068742;28;20502;-74
2023/04/06 02:31:16;;;;;;;12.40;6.25;;;27.40;99.90;;;;;;5075328;28;20052;-71
2023/04/06 02:33:43;;;;;;;13.60;7.75;;;27.50;99.90;;;;;;5074011;28;20024;-73
2023/04/06 02:36:09;;;;;;;12.77;6.32;;;27.60;99.90;;;;;;5075041;28;20450;-72
2023/04/06 02:38:36;;;;;;;12.30;7.00;;;27.50;99.90;;;;;;5074777;28;20036;-72
2023/04/06 02:41:02;;;;;;;44.40;30.80;;;27.50;99.90;;;;;;5075059;28;20602;-74
2023/04/06 02:43:29;;;;;;;70.38;49.15;;;27.70;99.90;;;;;;5074945;28;20383;-72
2023/04/06 02:45:56;;;;;;;77.40;60.08;;;27.80;99.90;;;;;;5074593;28;20035;-70
2023/04/06 02:48:22;;;;;;;115.45;82.25;;;27.90;99.90;;;;;;5074866;28;20047;-73
2023/04/06 02:50:49;;;;;;;51.03;35.05;;;27.80;99.90;;;;;;5074563;28;20063;-75
2023/04/06 02:53:16;;;;;;;113.95;72.38;;;27.90;99.90;;;;;;5072766;28;20032;-75
2023/04/06 02:55:42;;;;;;;34.45;21.40;;;28.00;99.90;;;;;;5072954;28;20028;-74
2023/04/06 02:58:09;;;;;;;10.38;7.30;;;28.10;99.90;;;;;;5073744;28;20027;-76
2023/04/06 03:00:36;;;;;;;9.95;6.60;;;28.00;99.90;;;;;;5074089;28;20049;-72
2023/04/06 03:03:02;;;;;;;9.73;6.13;;;28.20;99.90;;;;;;5074060;28;20024;-72
2023/04/06 03:05:29;;;;;;;13.23;7.13;;;28.10;99.90;;;;;;5074299;28;20070;-74
2023/04/06 03:07:55;;;;;;;9.32;6.28;;;28.20;99.90;;;;;;5074589;28;20070;-72
2023/04/06 03:10:22;;;;;;;10.85;6.90;;;28.20;99.90;;;;;;5074325;28;20494;-72
2023/04/06 03:12:48;;;;;;;13.30;7.10;;;28.30;99.90;;;;;;5074600;28;20021;-71
2023/04/06 03:15:15;;;;;;;10.13;6.20;;;28.20;99.90;;;;;;5074474;28;20032;-71
2023/04/06 03:17:41;;;;;;;14.70;6.85;;;28.20;99.90;;;;;;5074256;28;20116;-72
2023/04/06 03:20:08;;;;;;;9.23;6.05;;;28.30;99.90;;;;;;5074295;28;20109;-74
2023/04/06 03:22:35;;;;;;;8.55;6.13;;;28.30;99.90;;;;;;5074174;28;20036;-74
2023/04/06 03:25:01;;;;;;;7.97;5.43;;;28.50;99.90;;;;;;5073926;28;20041;-72
2023/04/06 03:27:28;;;;;;;12.38;6.25;;;28.30;99.90;;;;;;5074277;28;20490;-72
2023/04/06 03:29:55;;;;;;;7.68;5.80;;;28.40;99.90;;;;;;5074078;28;20017;-72
2023/04/06 03:32:21;;;;;;;7.22;5.35;;;28.60;99.90;;;;;;5073900;28;20032;-72
2023/04/06 03:34:48;;;;;;;12.30;6.25;;;28.50;99.90;;;;;;5074178;28;20100;-72
2023/04/06 03:37:14;;;;;;;8.02;5.20;;;28.50;99.90;;;;;;5073520;28;20025;-72
2023/04/06 03:39:41;;;;;;;11.52;5.60;;;28.60;99.90;;;;;;5073728;28;20029;-72
2023/04/06 03:42:08;;;;;;;6.40;4.65;;;28.60;99.90;;;;;;5073934;28;20020;-73
2023/04/06 03:44:35;;;;;;;7.38;4.55;;;28.50;99.90;;;;;;5074203;28;20028;-72
2023/04/06 03:47:02;;;;;;;8.27;4.40;;;28.70;99.90;;;;;;5073662;28;20538;-74
2023/04/06 03:49:28;;;;;;;8.80;4.85;;;28.60;99.90;;;;;;5073721;28;20100;-69
2023/04/06 03:51:56;;;;;;;8.60;4.40;;;28.60;99.90;;;;;;5073730;28;20029;-71
2023/04/06 03:54:23;;;;;;;6.10;4.85;;;28.70;99.90;;;;;;5073573;28;20029;-69
2023/04/06 03:56:50;;;;;;;7.28;4.35;;;28.70;99.90;;;;;;5070117;28;20040;-72
2023/04/06 03:59:16;;;;;;;5.00;3.72;;;28.90;99.90;;;;;;5064888;28;20391;-74
2023/04/06 04:01:43;;;;;;;11.18;4.07;;;28.90;99.90;;;;;;5062754;28;20050;-75
2023/04/06 04:04:10;;;;;;;7.55;4.20;;;28.80;99.90;;;;;;5062258;28;20013;-72
2023/04/06 04:06:36;;;;;;;6.57;3.97;;;28.80;99.90;;;;;;5060982;28;20430;-72
2023/04/06 04:09:03;;;;;;;6.15;4.47;;;28.80;99.90;;;;;;5062948;28;20451;-71
2023/04/06 04:11:30;;;;;;;19.13;12.95;;;28.90;99.90;;;;;;5053644;28;20029;-70
2023/04/06 04:13:56;;;;;;;7.28;5.15;;;28.90;99.90;;;;;;5061199;28;20020;-70
2023/04/06 04:16:23;;;;;;;4.68;3.80;;;28.90;99.90;;;;;;5062557;28;20013;-72
2023/04/06 04:18:50;;;;;;;9.40;4.10;;;28.90;99.90;;;;;;5062273;28;20027;-72
2023/04/06 04:21:16;;;;;;;8.05;3.90;;;29.00;99.90;;;;;;5063907;28;20101;-72
2023/04/06 04:23:43;;;;;;;8.05;4.20;;;29.00;99.90;;;;;;5062403;28;20167;-69
2023/04/06 04:26:10;;;;;;;4.90;3.85;;;29.20;99.90;;;;;;5061618;28;20037;-69
2023/04/06 04:28:36;;;;;;;6.30;3.92;;;29.20;99.90;;;;;;5063231;28;20378;-70
2023/04/06 04:31:03;;;;;;;7.05;4.10;;;29.20;99.90;;;;;;5063839;28;20020;-70
2023/04/06 04:33:29;;;;;;;7.90;4.28;;;29.30;99.90;;;;;;5061775;28;20017;-71
2023/04/06 04:35:56;;;;;;;6.47;4.43;;;29.30;99.90;;;;;;5063167;28;20035;-71
2023/04/06 04:38:22;;;;;;;6.75;4.70;;;29.40;99.90;;;;;;5063390;28;20029;-71
2023/04/06 04:40:49;;;;;;;12.35;6.82;;;29.40;99.90;;;;;;5061490;28;20025;-71
2023/04/06 04:43:16;;;;;;;7.95;5.70;;;29.40;99.90;;;;;;5062784;28;20039;-71
2023/04/06 04:45:42;;;;;;;8.68;5.97;;;29.40;99.90;;;;;;5063464;28;20551;-71
2023/04/06 04:48:09;;;;;;;9.50;5.20;;;29.40;99.90;;;;;;5061482;28;20021;-71
2023/04/06 04:50:36;;;;;;;10.63;5.53;;;29.40;99.90;;;;;;5064978;28;20478;-69
2023/04/06 04:53:05;;;;;;;8.95;5.63;;;29.40;99.90;;;;;;5067535;28;20029;-68
2023/04/06 04:55:32;;;;;;;12.95;5.70;;;29.50;99.90;;;;;;5065675;28;20496;-70
2023/04/06 04:57:59;;;;;;;9.13;4.90;;;29.50;99.90;;;;;;5066639;28;20024;-70
2023/04/06 05:00:25;;;;;;;7.07;4.95;;;29.50;99.90;;;;;;5066027;28;20028;-69
2023/04/06 05:02:52;;;;;;;9.98;4.78;;;29.50;99.90;;;;;;5065590;28;20052;-70
2023/04/06 05:05:18;;;;;;;8.05;4.53;;;29.50;99.90;;;;;;5064852;28;20028;-71
2023/04/06 05:07:45;;;;;;;5.88;4.30;;;29.50;99.90;;;;;;5062012;28;20013;-70
2023/04/06 05:10:12;;;;;;;6.85;4.22;;;29.50;99.90;;;;;;5065638;28;20066;-72
2023/04/06 05:12:38;;;;;;;112.63;85.35;;;29.50;99.90;;;;;;5066376;28;20028;-72
2023/04/06 05:15:05;;;;;;;12.18;6.97;;;29.60;99.90;;;;;;5061932;28;20017;-72
2023/04/06 05:17:32;;;;;;;10.13;5.60;;;29.70;99.90;;;;;;5065508;28;20024;-71
2023/04/06 05:19:59;;;;;;;10.02;8.32;;;29.80;99.90;;;;;;5066214;28;20107;-68
2023/04/06 05:22:26;;;;;;;11.52;8.15;;;29.80;99.90;;;;;;5061900;28;20024;-69
2023/04/06 05:24:52;;;;;;;13.90;9.98;;;29.90;99.90;;;;;;5065236;28;20060;-70
2023/04/06 05:27:19;;;;;;;9.23;7.72;;;29.90;99.90;;;;;;5066191;28;20475;-71
2023/04/06 05:29:45;;;;;;;13.75;7.80;;;29.90;99.90;;;;;;5061716;28;20048;-70
2023/04/06 05:32:12;;;;;;;14.15;10.02;;;29.90;99.90;;;;;;5065190;28;20021;-69
2023/04/06 05:34:39;;;;;;;14.15;9.48;;;30.00;99.90;;;;;;5066003;28;20026;-70
2023/04/06 05:37:05;;;;;;;13.52;12.07;;;29.90;99.90;;;;;;5061545;28;20025;-71
2023/04/06 05:39:32;;;;;;;14.18;12.05;;;29.90;99.90;;;;;;5065197;28;20070;-71
2023/04/06 05:41:58;;;;;;;18.45;12.35;;;29.90;99.90;;;;;;5063248;28;20025;-70
2023/04/06 05:44:25;;;;;;;13.80;11.20;;;30.00;99.90;;;;;;5056359;28;20017;-70
2023/04/06 05:46:52;;;;;;;14.18;11.25;;;30.00;99.90;;;;;;5056194;28;20028;-70
2023/04/06 05:49:18;;;;;;;17.05;12.32;;;30.00;99.90;;;;;;5055907;28;20027;-72
2023/04/06 05:51:45;;;;;;;14.98;11.85;;;30.00;99.90;;;;;;5056124;28;20368;-73
2023/04/06 05:54:11;;;;;;;13.65;11.95;;;30.00;99.90;;;;;;5055715;28;20174;-73
2023/04/06 05:56:38;;;;;;;15.20;11.32;;;30.00;99.90;;;;;;5060696;28;20540;-73
2023/04/06 05:59:05;;;;;;;15.25;12.25;;;30.00;99.90;;;;;;5067509;28;20020;-72
2023/04/06 06:01:32;;;;;;;20.98;11.32;;;30.10;99.90;;;;;;5075091;28;20025;-72
2023/04/06 06:04:01;;;;;;;15.45;12.23;;;30.10;99.90;;;;;;5066019;28;20036;-71
2023/04/06 06:06:30;;;;;;;12.15;8.93;;;30.00;99.90;;;;;;5075902;28;20025;-71
2023/04/06 06:09:00;;;;;;;7.40;5.65;;;30.10;99.90;;;;;;5075045;28;20410;-72
2023/04/06 06:11:27;;;;;;;10.73;7.50;;;30.00;99.90;;;;;;5062933;28;20021;-70
2023/04/06 06:13:54;;;;;;;13.95;8.38;;;29.90;99.90;;;;;;5063281;28;20364;-71
2023/04/06 06:16:21;;;;;;;8.50;6.47;;;30.00;99.90;;;;;;5064987;28;20017;-71
2023/04/06 06:18:47;;;;;;;6.72;5.80;;;30.00;99.90;;;;;;5062945;28;20021;-71
2023/04/06 06:21:16;;;;;;;7.88;6.75;;;30.00;99.90;;;;;;5064608;28;20020;-71
2023/04/06 06:23:43;;;;;;;8.93;6.03;;;30.00;99.90;;;;;;5064734;28;20440;-71
2023/04/06 06:26:10;;;;;;;6.55;5.50;;;30.00;99.90;;;;;;5059928;28;20071;-71
2023/04/06 06:28:37;;;;;;;11.38;7.47;;;30.00;99.90;;;;;;5064017;28;20108;-71
2023/04/06 06:31:03;;;;;;;12.90;8.02;;;30.00;99.90;;;;;;5065897;28;20035;-71
2023/04/06 06:33:30;;;;;;;9.05;6.82;;;30.00;99.90;;;;;;5067410;28;20016;-69
2023/04/06 06:35:57;;;;;;;10.45;7.10;;;29.90;99.90;;;;;;5063392;28;20036;-68
2023/04/06 06:38:23;;;;;;;9.68;7.00;;;30.00;99.90;;;;;;5064526;28;20024;-70
2023/04/06 06:40:50;;;;;;;9.05;7.13;;;29.90;99.90;;;;;;5063238;28;20368;-69
2023/04/06 06:43:16;;;;;;;10.10;7.32;;;29.90;99.90;;;;;;5054950;28;20025;-68
2023/04/06 06:45:44;;;;;;;12.35;8.60;;;30.00;99.90;;;;;;5059813;28;20467;-70
2023/04/06 06:48:10;;;;;;;19.05;11.80;;;30.00;99.90;;;;;;5063548;28;20032;-67
2023/04/06 06:50:37;;;;;;;14.55;12.27;;;30.00;99.90;;;;;;5062554;28;20020;-68
2023/04/06 06:53:03;;;;;;;14.93;12.55;;;30.00;99.90;;;;;;5061366;28;20035;-68
2023/04/06 06:55:30;;;;;;;18.60;13.65;;;29.90;99.90;;;;;;5063276;28;20020;-69
2023/04/06 06:57:57;;;;;;;21.95;15.57;;;30.00;99.90;;;;;;5062562;28;20453;-73
2023/04/06 07:00:23;;;;;;;14.98;10.73;;;30.00;99.90;;;;;;5059753;28;20053;-67
2023/04/06 07:02:50;;;;;;;13.45;9.70;;;30.00;99.90;;;;;;5064876;28;20021;-68
2023/04/06 07:05:17;;;;;;;14.88;10.10;;;30.10;99.90;;;;;;5074545;28;20485;-70
2023/04/06 07:07:44;;;;;;;13.18;9.10;;;30.20;99.90;;;;;;5074489;28;20048;-69
2023/04/06 07:10:11;;;;;;;10.07;8.38;;;30.10;99.90;;;;;;5074303;28;20086;-70
2023/04/06 07:12:37;;;;;;;9.60;6.72;;;30.10;99.90;;;;;;5073517;28;20108;-69
2023/04/06 07:15:05;;;;;;;9.50;6.20;;;30.10;99.90;;;;;;5073104;28;20107;-70
2023/04/06 07:17:31;;;;;;;9.15;5.75;;;30.00;99.90;;;;;;5074226;28;20024;-70
2023/04/06 07:19:58;;;;;;;8.50;5.50;;;30.10;99.90;;;;;;5074248;28;20016;-71
2023/04/06 07:22:24;;;;;;;7.45;5.28;;;30.20;99.90;;;;;;5074232;28;20052;-71
2023/04/06 07:24:51;;;;;;;7.05;4.32;;;30.20;99.90;;;;;;5073914;28;20071;-72
2023/04/06 07:27:18;;;;;;;6.70;4.57;;;30.20;99.90;;;;;;5074059;28;20410;-70
2023/04/06 07:29:45;;;;;;;6.05;3.00;;;30.20;99.90;;;;;;5074226;28;20044;-71
2023/04/06 07:32:11;;;;;;;4.35;2.60;;;30.20;99.90;;;;;;5073999;28;20026;-71
2023/04/06 07:34:39;;;;;;;3.95;2.25;;;30.20;99.90;;;;;;5073972;28;20536;-70
2023/04/06 07:37:07;;;;;;;3.15;2.63;;;30.20;99.90;;;;;;5074047;28;20086;-70
2023/04/06 07:39:34;;;;;;;6.88;2.83;;;30.20;99.90;;;;;;5072523;28;20028;-70
2023/04/06 07:42:01;;;;;;;6.60;3.75;;;30.20;99.90;;;;;;5073918;28;20029;-70
2023/04/06 07:44:27;;;;;;;4.72;2.97;;;30.20;99.90;;;;;;5073867;28;20074;-70
2023/04/06 07:46:54;;;;;;;7.18;3.20;;;30.20;99.90;;;;;;5072712;28;20493;-70
2023/04/06 07:49:20;;;;;;;3.95;3.10;;;30.30;99.90;;;;;;5054549;28;20116;-72
2023/04/06 07:51:47;;;;;;;5.97;2.80;;;30.30;99.90;;;;;;5055840;28;20017;-71
2023/04/06 07:54:13;;;;;;;7.68;4.00;;;30.40;99.90;;;;;;5073667;28;20012;-70
2023/04/06 07:56:40;;;;;;;8.52;3.47;;;30.50;99.90;;;;;;5073486;28;20016;-70
2023/04/06 07:59:07;;;;;;;11.15;3.63;;;30.50;99.90;;;;;;5056487;28;20021;-72
2023/04/06 08:01:33;;;;;;;5.05;3.15;;;30.40;99.90;;;;;;5062351;28;20021;-70
2023/04/06 08:04:02;;;;;;;9.98;3.40;;;30.50;99.90;;;;;;5053289;28;20017;-71
2023/04/06 08:06:28;;;;;;;5.07;3.17;;;30.50;99.90;;;;;;5053498;28;20017;-71
2023/04/06 08:08:55;;;;;;;8.13;3.70;;;30.60;99.90;;;;;;5053524;28;20020;-70
2023/04/06 08:11:22;;;;;;;3.35;2.72;;;30.60;99.90;;;;;;5053205;28;20487;-71
2023/04/06 08:13:48;;;;;;;7.15;4.10;;;30.60;99.90;;;;;;5053469;28;20479;-71
2023/04/06 08:16:15;;;;;;;11.57;5.60;;;30.70;99.90;;;;;;5053387;28;20070;-71
2023/04/06 08:18:41;;;;;;;10.00;5.03;;;30.70;99.90;;;;;;5053518;28;20463;-71
2023/04/06 08:21:08;;;;;;;7.75;3.60;;;30.60;99.90;;;;;;5053514;28;20029;-71
2023/04/06 08:23:34;;;;;;;7.00;4.93;;;30.70;99.90;;;;;;5053030;28;20021;-71
2023/04/06 08:26:01;;;;;;;8.07;4.88;;;30.70;99.90;;;;;;5052921;28;20037;-71
2023/04/06 08:28:28;;;;;;;11.88;6.20;;;30.70;99.90;;;;;;5053353;28;20017;-70
2023/04/06 08:30:54;;;;;;;5.55;3.38;;;30.80;99.90;;;;;;5053258;28;20020;-69
2023/04/06 08:33:21;;;;;;;5.55;2.97;;;30.80;99.90;;;;;;5052988;28;20025;-70
2023/04/06 08:35:47;;;;;;;4.60;2.97;;;30.80;99.90;;;;;;5053430;28;20360;-71
2023/04/06 08:38:14;;;;;;;7.18;3.80;;;30.80;99.90;;;;;;5053599;28;20017;-70
2023/04/06 08:40:43;;;;;;;6.18;3.80;;;30.70;99.90;;;;;;5053004;28;20028;-69
2023/04/06 08:43:13;;;;;;;4.97;3.35;;;30.70;99.90;;;;;;5053013;28;20075;-69
2023/04/06 08:45:42;;;;;;;8.10;3.75;;;30.80;99.90;;;;;;5053346;28;20472;-69
2023/04/06 08:48:10;;;;;;;6.13;3.42;;;30.80;99.90;;;;;;5053458;28;20270;-70
2023/04/06 08:50:38;;;;;;;5.00;3.50;;;30.80;99.90;;;;;;5053210;28;20534;-68
2023/04/06 08:53:07;;;;;;;3.80;3.20;;;30.80;99.90;;;;;;5053360;28;20475;-70
2023/04/06 08:55:35;;;;;;;4.88;3.08;;;30.80;99.90;;;;;;5052648;28;20104;-70
2023/04/06 08:58:03;;;;;;;5.45;3.60;;;30.80;99.90;;;;;;5053083;28;20083;-70
2023/04/06 09:00:30;;;;;;;7.47;4.07;;;30.80;99.90;;;;;;5052839;28;20536;-70
2023/04/06 09:02:58;;;;;;;5.88;3.47;;;30.80;99.90;;;;;;5052825;28;20201;-70
2023/04/06 09:05:26;;;;;;;9.80;3.58;;;30.80;99.90;;;;;;5052907;28;20079;-70
2023/04/06 09:07:53;;;;;;;7.18;3.72;;;30.80;99.90;;;;;;5052864;28;20017;-70
2023/04/06 09:10:20;;;;;;;6.72;3.90;;;30.80;99.90;;;;;;5052638;28;20029;-70
2023/04/06 09:12:47;;;;;;;10.13;5.85;;;30.80;99.90;;;;;;5052799;28;20555;-70
2023/04/06 09:15:22;;;;;;;7.38;4.78;;;30.90;99.90;;;;;;5052925;28;20159;-67
2023/04/06 09:17:49;;;;;;;4.68;3.30;;;30.90;99.90;;;;;;5053765;28;20472;-71
2023/04/06 09:20:21;;;;;;;7.32;4.00;;;30.80;99.90;;;;;;5053230;28;20021;-71
2023/04/06 09:22:49;;;;;;;11.75;5.20;;;30.90;99.90;;;;;;5052520;28;20036;-69
2023/04/06 09:25:26;;;;;;;9.68;5.28;;;30.90;99.90;;;;;;5052758;28;20087;-69
2023/04/06 09:28:06;;;;;;;6.57;5.28;;;30.90;99.90;;;;;;5052928;28;20021;-70
2023/04/06 09:30:34;;;;;;;7.63;4.85;;;30.90;99.90;;;;;;5052849;28;20055;-68
2023/04/06 09:33:00;;;;;;;5.25;3.85;;;30.90;99.90;;;;;;5052798;28;20029;-70
2023/04/06 09:35:29;;;;;;;6.93;4.28;;;30.80;99.90;;;;;;5052778;28;20370;-68
2023/04/06 09:37:56;;;;;;;8.38;3.55;;;30.90;99.90;;;;;;5056448;28;20112;-69
2023/04/06 09:40:24;;;;;;;6.22;3.45;;;30.80;99.90;;;;;;5056811;28;20053;-68
2023/04/06 09:42:53;;;;;;;6.03;4.22;;;30.80;99.90;;;;;;5056162;28;20108;-69
2023/04/06 09:45:20;;;;;;;9.05;4.13;;;30.80;99.90;;;;;;5056462;28;20052;-70
2023/04/06 09:47:47;;;;;;;5.88;4.40;;;30.90;99.90;;;;;;5056332;28;20029;-69
2023/04/06 09:50:16;;;;;;;9.82;4.70;;;30.90;99.90;;;;;;5056183;28;20017;-68
2023/04/06 09:52:54;;;;;;;8.10;4.82;;;30.90;99.90;;;;;;5056441;28;20032;-68
2023/04/06 09:55:30;;;;;;;6.30;4.20;;;31.00;99.90;;;;;;5061100;28;20021;-68
2023/04/06 09:58:07;;;;;;;8.32;4.13;;;31.00;99.90;;;;;;5036155;28;20034;-68
2023/04/06 10:00:51;;;;;;;11.77;5.80;;;30.90;99.90;;;;;;5036153;28;20025;-68
2023/04/06 10:03:27;;;;;;;10.85;4.80;;;30.90;99.90;;;;;;5036313;28;20125;-69
2023/04/06 10:05:58;;;;;;;12.30;6.70;;;30.90;99.90;;;;;;5036288;28;20021;-68
2023/04/06 10:08:28;;;;;;;27.42;16.50;;;30.90;99.90;;;;;;5036221;28;20112;-68
2023/04/06 10:10:56;;;;;;;29.98;22.38;;;30.80;99.90;;;;;;5035892;28;20031;-68
2023/04/06 10:13:24;;;;;;;23.48;15.27;;;30.80;99.90;;;;;;5035881;28;20029;-69
2023/04/06 10:15:52;;;;;;;16.73;10.48;;;30.80;99.90;;;;;;5035814;28;20041;-69
2023/04/06 10:18:20;;;;;;;24.33;16.52;;;30.80;99.90;;;;;;5035998;28;20056;-69
2023/04/06 10:20:54;;;;;;;32.78;22.67;;;30.80;99.90;;;;;;5036102;28;20040;-70
2023/04/06 10:23:23;;;;;;;28.35;18.88;;;30.80;99.90;;;;;;5035747;28;20427;-70
2023/04/06 10:25:56;;;;;;;21.65;15.32;;;30.70;99.90;;;;;;5035815;28;20446;-70
2023/04/06 10:28:23;;;;;;;37.97;22.45;;;30.70;99.90;;;;;;5035726;28;20380;-69
2023/04/06 10:30:56;;;;;;;60.95;34.33;;;30.70;99.90;;;;;;5036218;28;20098;-69
2023/04/06 10:33:23;;;;;;;50.75;34.47;;;30.70;99.90;;;;;;5035969;28;20045;-69
2023/04/06 10:35:49;;;;;;;20.45;13.80;;;30.70;99.90;;;;;;5036290;28;20075;-70
2023/04/06 10:38:20;;;;;;;17.58;11.10;;;30.70;99.90;;;;;;5035916;28;20213;-69
2023/04/06 10:40:47;;;;;;;16.52;9.73;;;30.60;99.90;;;;;;5035851;28;20034;-69
2023/04/06 10:43:20;;;;;;;24.20;12.20;;;30.60;99.90;;;;;;5035942;28;20025;-69
2023/04/06 10:46:06;;;;;;;18.67;9.80;;;30.50;99.90;;;;;;5035666;28;20025;-69
2023/04/06 10:48:42;;;;;;;10.35;6.43;;;30.50;99.90;;;;;;5035115;28;20040;-69
2023/04/06 10:51:18;;;;;;;8.88;6.00;;;30.40;99.90;;;;;;5035131;28;20055;-70
2023/04/06 10:53:48;;;;;;;12.52;7.32;;;30.30;99.90;;;;;;5035008;28;20034;-68
2023/04/06 10:56:16;;;;;;;15.73;7.47;;;30.30;99.90;;;;;;5039382;28;20029;-70
2023/04/06 10:58:47;;;;;;;10.35;6.97;;;30.30;99.90;;;;;;5058568;28;20074;-69
2023/04/06 11:01:18;;;;;;;18.85;9.60;;;30.30;99.90;;;;;;5061615;28;20025;-67
2023/04/06 11:03:45;;;;;;;27.38;14.48;;;30.20;99.90;;;;;;5063184;28;20476;-69
2023/04/06 11:06:19;;;;;;;33.95;16.08;;;30.20;99.90;;;;;;5061953;28;20568;-69
2023/04/06 11:08:46;;;;;;;25.02;13.27;;;30.30;99.90;;;;;;5064537;28;20024;-70
2023/04/06 11:11:17;;;;;;;27.05;13.93;;;30.20;99.90;;;;;;5058964;28;20101;-69
2023/04/06 11:13:50;;;;;;;30.77;13.10;;;30.20;99.90;;;;;;5067870;28;20035;-70
2023/04/06 11:16:17;;;;;;;24.08;12.35;;;30.10;99.90;;;;;;5061624;28;20041;-70
2023/04/06 11:18:50;;;;;;;25.00;12.75;;;30.10;99.90;;;;;;5054609;28;20379;-70
2023/04/06 11:21:17;;;;;;;26.05;12.73;;;30.10;99.90;;;;;;5044797;28;20037;-69
2023/04/06 11:23:43;;;;;;;24.00;12.60;;;30.10;99.90;;;;;;5067714;28;20028;-67
2023/04/06 11:26:13;;;;;;;27.65;12.85;;;30.10;99.90;;;;;;5068896;28;20392;-70
2023/04/06 11:28:45;;;;;;;35.05;16.73;;;30.20;99.90;;;;;;5054126;28;20044;-69
2023/04/06 11:31:11;;;;;;;30.17;17.60;;;30.10;99.90;;;;;;5053778;28;20044;-70
2023/04/06 11:33:38;;;;;;;35.38;18.25;;;30.10;99.90;;;;;;5059318;28;20091;-69
2023/04/06 11:36:06;;;;;;;38.28;18.65;;;30.00;99.90;;;;;;5063383;28;20025;-70
2023/04/06 11:38:33;;;;;;;35.90;18.02;;;30.00;99.90;;;;;;5063921;28;20021;-70
2023/04/06 11:41:01;;;;;;;34.85;18.90;;;30.00;99.90;;;;;;5063407;28;20379;-68
2023/04/06 11:43:30;;;;;;;35.42;19.05;;;30.10;99.90;;;;;;5058637;28;20033;-69
2023/04/06 11:46:08;;;;;;;41.65;20.83;;;30.10;99.90;;;;;;5056978;28;20036;-69
2023/04/06 11:48:45;;;;;;;50.60;23.73;;;30.10;99.90;;;;;;5067427;28;20017;-69
2023/04/06 11:51:12;;;;;;;61.90;34.10;;;30.10;99.90;;;;;;5052098;28;20032;-70
2023/04/06 11:53:47;;;;;;;63.33;31.73;;;30.10;99.90;;;;;;5056556;28;20067;-68
2023/04/06 11:56:25;;;;;;;75.43;38.40;;;29.90;99.90;;;;;;5055352;28;20082;-70
2023/04/06 11:58:56;;;;;;;76.35;39.95;;;30.00;99.90;;;;;;5054816;28;20500;-69
2023/04/06 12:01:24;;;;;;;71.10;35.75;;;29.90;99.90;;;;;;5055150;28;20455;-69
2023/04/06 12:03:51;;;;;;;60.50;35.47;;;29.80;99.90;;;;;;5061985;28;20020;-68
2023/04/06 12:06:19;;;;;;;62.88;35.58;;;29.90;99.90;;;;;;5060721;28;20037;-69
2023/04/06 12:08:46;;;;;;;54.35;33.20;;;29.80;99.90;;;;;;5054617;28;20418;-68
2023/04/06 12:11:12;;;;;;;69.65;37.58;;;29.80;99.90;;;;;;5059538;28;20103;-69
2023/04/06 12:13:39;;;;;;;85.88;53.80;;;29.90;99.90;;;;;;5062873;28;20016;-68
2023/04/06 12:16:06;;;;;;;83.57;45.05;;;29.70;99.90;;;;;;5070563;28;20024;-68
2023/04/06 12:18:32;;;;;;;72.75;40.30;;;29.80;99.90;;;;;;5057535;28;20016;-69
2023/04/06 12:20:59;;;;;;;72.22;40.28;;;29.90;99.90;;;;;;5063788;28;20033;-67
2023/04/06 12:23:26;;;;;;;75.63;40.25;;;29.90;99.90;;;;;;5063370;28;20017;-69
2023/04/06 12:25:54;;;;;;;84.10;46.58;;;29.90;99.90;;;;;;5060319;28;20055;-69
2023/04/06 12:28:22;;;;;;;93.38;47.22;;;29.60;99.90;;;;;;5062274;28;20074;-69
2023/04/06 12:30:50;;;;;;;89.18;46.40;;;29.70;99.90;;;;;;5059887;28;20029;-70
2023/04/06 12:33:16;;;;;;;93.93;45.60;;;29.70;99.90;;;;;;5065032;28;20036;-70
2023/04/06 12:35:43;;;;;;;94.05;48.03;;;29.50;99.90;;;;;;5054501;28;20094;-69
2023/04/06 12:38:10;;;;;;;89.95;50.15;;;29.70;99.90;;;;;;5063464;28;20079;-69
2023/04/06 12:40:39;;;;;;;104.00;48.50;;;29.40;99.90;;;;;;5054180;28;20063;-70